Time;durP1;ratioP1;P1;durP2;ratioP2;P2;SDS_P1;SDS_P2;PMS_P1;PMS_P2;Temp;Humidity;BMP_temperature;BMP_pressure;BME280_temperature;BME280_humidity;BME280_pressure;Samples;Min_cycle;Max_cycle;Signal;HPM_P1;HPM_P2
2023/07/10 00:01:06;;;;;;;6.35;1.90;;;;;;;25.52;67.58;98528.31;15272525;19;19933;-41
2023/07/10 00:06:31;;;;;;;2.72;1.70;;;;;;;25.39;68.48;98512.97;15271953;19;20018;-41
2023/07/10 00:11:59;;;;;;;5.47;1.90;;;;;;;25.19;76.50;98508.00;15276117;19;20014;-41
2023/07/10 00:17:24;;;;;;;4.18;1.95;;;;;;;24.99;83.32;98507.75;15272493;19;20023;-42
2023/07/10 00:22:49;;;;;;;2.88;1.73;;;;;;;24.74;100.00;98498.00;15273536;19;20082;-42
2023/07/10 00:28:22;;;;;;;6.10;1.90;;;;;;;24.51;100.00;98485.22;15275043;19;20007;-42
2023/07/10 00:33:48;;;;;;;6.68;1.90;;;;;;;24.37;100.00;98498.50;15267656;19;20018;-42
2023/07/10 00:39:26;;;;;;;5.40;1.90;;;;;;;24.29;100.00;98497.81;15274725;19;20021;-42
2023/07/10 00:44:59;;;;;;;6.07;1.90;;;;;;;24.14;100.00;98490.13;15270975;19;20956;-43
2023/07/10 00:50:29;;;;;;;5.63;2.05;;;;;;;24.09;100.00;98490.03;15274007;19;20014;-44
2023/07/10 00:55:57;;;;;;;4.70;1.85;;;;;;;24.02;100.00;98488.53;15267831;19;20019;-42
2023/07/10 01:01:27;;;;;;;5.32;1.80;;;;;;;23.96;100.00;98491.19;15272403;19;20025;-43
2023/07/10 01:06:53;;;;;;;6.72;2.10;;;;;;;23.87;100.00;98498.13;15265995;19;20042;-41
2023/07/10 01:12:20;;;;;;;5.55;1.70;;;;;;;23.80;100.00;98491.97;15269432;19;20023;-42
2023/07/10 01:17:50;;;;;;;6.50;1.92;;;;;;;23.67;100.00;98480.16;15267345;19;20427;-41
2023/07/10 01:23:17;;;;;;;5.22;1.88;;;;;;;23.54;100.00;98472.22;15265852;19;20018;-42
2023/07/10 01:28:42;;;;;;;5.80;1.90;;;;;;;23.46;100.00;98478.09;15268651;19;20018;-42
2023/07/10 01:34:10;;;;;;;6.25;1.90;;;;;;;23.29;100.00;98472.50;15269094;19;20018;-42
2023/07/10 01:39:44;;;;;;;3.45;1.63;;;;;;;23.22;100.00;98469.94;15266681;19;20483;-42
2023/07/10 01:45:08;;;;;;;4.10;1.85;;;;;;;23.15;100.00;98460.94;15264947;19;20513;-42
2023/07/10 01:50:33;;;;;;;4.88;1.80;;;;;;;23.03;100.00;98456.31;15269345;19;20010;-41
2023/07/10 01:56:00;;;;;;;4.10;2.08;;;;;;;22.98;100.00;98447.13;15264496;19;20015;-42
2023/07/10 02:01:25;;;;;;;5.72;1.95;;;;;;;22.93;100.00;98447.84;15266923;19;20073;-42
2023/07/10 02:06:54;;;;;;;2.70;1.50;;;;;;;22.90;100.00;98451.91;15265467;19;20018;-42
2023/07/10 02:12:22;;;;;;;5.22;1.80;;;;;;;22.87;100.00;98451.56;15263759;19;20380;-42
2023/07/10 02:17:46;;;;;;;4.95;1.80;;;;;;;22.84;100.00;98446.53;15264162;19;20078;-42
2023/07/10 02:23:11;;;;;;;4.40;1.90;;;;;;;22.77;100.00;98442.00;15265233;19;20014;-42
2023/07/10 02:28:38;;;;;;;3.95;1.85;;;;;;;22.67;100.00;98438.22;15267900;19;20018;-41
2023/07/10 02:34:03;;;;;;;3.53;1.90;;;;;;;22.51;100.00;98473.53;15267021;19;20022;-41
2023/07/10 02:39:27;;;;;;;7.72;2.10;;;;;;;22.29;100.00;98481.47;15274825;19;21780;-41
2023/07/10 02:45:01;;;;;;;4.07;1.80;;;;;;;22.25;100.00;98477.53;15272235;19;20018;-41
2023/07/10 02:50:26;;;;;;;6.15;2.00;;;;;;;22.18;100.00;98466.66;15283555;19;20034;-41
2023/07/10 02:55:51;;;;;;;3.85;1.70;;;;;;;22.14;100.00;98477.28;15278371;19;20092;-41
2023/07/10 03:01:25;;;;;;;4.40;2.00;;;;;;;22.01;100.00;98467.34;15282830;19;20206;-41
2023/07/10 03:06:50;;;;;;;3.92;1.92;;;;;;;21.95;100.00;98472.94;15277302;19;20011;-41
2023/07/10 03:12:15;;;;;;;3.45;1.90;;;;;;;21.83;100.00;98461.94;15282912;19;20097;-41
2023/07/10 03:17:43;;;;;;;4.95;1.98;;;;;;;21.74;100.00;98457.88;15272384;19;20029;-41
2023/07/10 03:23:08;;;;;;;5.80;2.20;;;;;;;21.69;100.00;98447.59;15278522;19;20019;-42
2023/07/10 03:28:33;;;;;;;3.05;1.90;;;;;;;21.62;100.00;98446.84;15284385;19;20015;-41
2023/07/10 03:34:01;;;;;;;6.60;2.10;;;;;;;21.60;100.00;98448.97;15282370;19;20086;-41
2023/07/10 03:39:25;;;;;;;4.57;1.90;;;;;;;21.54;100.00;98467.16;15284481;19;20021;-41
2023/07/10 03:44:50;;;;;;;4.18;2.00;;;;;;;21.12;100.00;98506.25;15278464;19;20018;-41
2023/07/10 03:50:18;;;;;;;5.38;2.00;;;;;;;20.92;100.00;98488.13;15280776;19;20070;-40
2023/07/10 03:55:50;;;;;;;4.18;2.03;;;;;;;20.69;100.00;98501.59;15279240;19;20082;-41
2023/07/10 04:01:15;;;;;;;2.75;2.00;;;;;;;20.66;100.00;98491.09;15284588;19;20365;-41
2023/07/10 04:06:43;;;;;;;3.45;2.03;;;;;;;20.58;100.00;98528.66;15279386;19;20019;-39
2023/07/10 04:12:08;;;;;;;3.72;2.00;;;;;;;20.39;100.00;98521.47;15281701;19;20011;-40
2023/07/10 04:17:33;;;;;;;5.30;2.08;;;;;;;20.46;100.00;98497.59;15276426;19;20464;-39
2023/07/10 04:23:00;;;;;;;3.30;2.00;;;;;;;20.56;100.00;98513.53;15275728;19;20082;-39
2023/07/10 04:28:25;;;;;;;3.85;1.85;;;;;;;20.63;100.00;98506.94;15305147;19;20022;-39
2023/07/10 04:33:49;;;;;;;3.88;2.13;;;;;;;20.73;100.00;98489.16;15310725;19;20023;-39
2023/07/10 04:39:17;;;;;;;2.90;2.20;;;;;;;20.84;100.00;98485.69;15312591;19;20014;-39
2023/07/10 04:44:48;;;;;;;6.28;2.10;;;;;;;20.88;100.00;98489.63;15303294;19;20077;-41
2023/07/10 04:50:13;;;;;;;5.38;2.20;;;;;;;20.93;100.00;98478.03;15308457;19;20014;-41
2023/07/10 04:55:40;;;;;;;5.18;2.40;;;;;;;20.97;100.00;98494.84;15303077;19;20018;-41
2023/07/10 05:01:05;;;;;;;4.20;1.90;;;;;;;21.02;100.00;98487.63;15273132;19;20081;-41
2023/07/10 05:06:30;;;;;;;6.53;2.00;;;;;;;21.10;100.00;98483.75;15274405;19;20025;-41
2023/07/10 05:11:58;;;;;;;3.10;1.98;;;;;;;21.22;100.00;98464.63;15275662;19;20035;-40
2023/07/10 05:17:22;;;;;;;4.00;2.10;;;;;;;21.33;100.00;98433.69;15268990;19;20422;-43
2023/07/10 05:22:48;;;;;;;3.42;1.77;;;;;;;21.46;100.00;98438.16;15272142;19;20019;-43
2023/07/10 05:28:15;;;;;;;5.05;2.00;;;;;;;21.62;100.00;98419.41;15272618;19;20086;-44
2023/07/10 05:33:41;;;;;;;6.05;1.95;;;;;;;21.75;100.00;98416.47;15274785;19;20014;-40
2023/07/10 05:39:05;;;;;;;5.72;2.05;;;;;;;21.87;100.00;98405.56;15273078;19;20500;-41
2023/07/10 05:44:33;;;;;;;5.72;2.20;;;;;;;22.04;100.00;98405.69;15271517;19;20017;-40
2023/07/10 05:49:58;;;;;;;7.25;2.17;;;;;;;22.19;100.00;98424.44;15275735;19;20014;-47
2023/07/10 05:55:24;;;;;;;4.18;1.90;;;;;;;22.34;100.00;98423.16;15267483;19;20078;-40
2023/07/10 06:00:55;;;;;;;3.35;1.90;;;;;;;22.44;100.00;98420.66;15273648;19;20031;-40
2023/07/10 06:06:20;;;;;;;8.75;2.22;;;;;;;22.57;100.00;98416.84;15268820;19;20102;-42
2023/07/10 06:11:45;;;;;;;4.85;2.50;;;;;;;22.65;100.00;98443.91;15273177;19;20025;-41
2023/07/10 06:17:15;;;;;;;4.72;2.38;;;;;;;22.71;100.00;98448.47;15283885;19;20077;-39
2023/07/10 06:22:39;;;;;;;4.65;2.30;;;;;;;22.78;100.00;98454.66;15283330;19;20032;-40
2023/07/10 06:28:04;;;;;;;7.07;2.35;;;;;;;22.83;100.00;98455.84;15283476;19;20015;-41
2023/07/10 06:33:31;;;;;;;4.22;2.38;;;;;;;22.82;100.00;98448.69;15285677;19;20043;-45
2023/07/10 06:38:56;;;;;;;3.58;2.10;;;;;;;22.90;100.00;98434.56;15285167;19;20552;-46
2023/07/10 06:44:20;;;;;;;6.57;2.17;;;;;;;23.06;100.00;98428.34;15279535;19;20019;-41
2023/07/10 06:49:48;;;;;;;5.03;2.17;;;;;;;23.22;100.00;98435.00;15286121;19;20054;-41
2023/07/10 06:55:14;;;;;;;5.10;2.30;;;;;;;23.33;100.00;98444.31;15281083;19;20047;-45
2023/07/10 07:00:39;;;;;;;3.97;2.28;;;;;;;23.55;100.00;98468.38;15282635;19;20011;-43
2023/07/10 07:06:07;;;;;;;5.07;2.30;;;;;;;23.76;100.00;98455.00;15274478;19;20022;-42
2023/07/10 07:11:32;;;;;;;5.78;2.30;;;;;;;23.95;100.00;98470.25;15283741;19;20085;-41
2023/07/10 07:16:56;;;;;;;4.93;2.47;;;;;;;24.09;100.00;98468.03;15274669;19;20479;-40
2023/07/10 07:22:24;;;;;;;5.05;2.38;;;;;;;24.25;100.00;98471.88;15279513;19;20878;-42
2023/07/10 07:27:48;;;;;;;5.65;2.15;;;;;;;24.39;100.00;98466.84;15270837;19;20015;-42
2023/07/10 07:33:13;;;;;;;4.60;2.00;;;;;;;24.68;100.00;98468.66;15272656;19;20030;-42
2023/07/10 07:38:41;;;;;;;4.55;2.00;;;;;;;24.91;100.00;98475.94;15280166;19;20018;-42
2023/07/10 07:44:06;;;;;;;5.95;2.10;;;;;;;25.16;100.00;98474.63;15276799;19;20014;-44
2023/07/10 07:49:31;;;;;;;4.40;1.90;;;;;;;25.34;100.00;98487.25;15278412;19;20018;-42
2023/07/10 07:54:58;;;;;;;3.58;2.00;;;;;;;25.55;100.00;98485.59;15277027;19;20018;-42
2023/07/10 08:00:24;;;;;;;8.32;2.05;;;;;;;25.66;100.00;98489.31;15277953;19;20018;-41
2023/07/10 08:05:48;;;;;;;4.45;1.90;;;;;;;25.81;100.00;98492.22;15269186;19;20034;-44
2023/07/10 08:11:16;;;;;;;4.82;1.80;;;;;;;25.86;100.00;98485.94;15277646;19;20356;-39
2023/07/10 08:16:41;;;;;;;6.82;2.00;;;;;;;25.99;100.00;98492.97;15272175;19;20086;-45
2023/07/10 08:22:06;;;;;;;3.33;2.10;;;;;;;26.18;100.00;98498.13;15277573;19;20021;-42
2023/07/10 08:27:33;;;;;;;3.78;1.85;;;;;;;26.34;100.00;98497.19;15269642;19;20089;-40
2023/07/10 08:32:58;;;;;;;3.08;1.58;;;;;;;26.55;100.00;98500.94;15277832;19;20018;-42
2023/07/10 08:38:22;;;;;;;5.80;1.70;;;;;;;26.73;100.00;98496.09;15272594;19;20018;-41
2023/07/10 08:43:51;;;;;;;6.35;1.67;;;;;;;26.99;100.00;98504.56;15273051;19;20017;-42
2023/07/10 08:49:24;;;;;;;3.50;1.67;;;;;;;27.15;100.00;98505.50;15275070;19;20010;-43
2023/07/10 08:54:52;;;;;;;3.00;1.92;;;;;;;27.16;100.00;98509.94;15272876;19;20020;-42
2023/07/10 09:00:19;;;;;;;3.47;1.70;;;;;;;27.29;100.00;98506.69;15276150;19;20025;-42
2023/07/10 09:05:47;;;;;;;3.45;1.70;;;;;;;27.42;100.00;98521.94;15270618;19;20105;-42
2023/07/10 09:11:13;;;;;;;5.40;1.45;;;;;;;27.58;100.00;98522.88;15270408;19;20018;-40
2023/07/10 09:16:41;;;;;;;5.72;1.80;;;;;;;27.78;100.00;98535.13;15269835;19;20523;-39
2023/07/10 09:22:11;;;;;;;2.80;1.50;;;;;;;27.65;100.00;98529.00;15274177;19;20379;-38
2023/07/10 09:27:36;;;;;;;3.87;1.70;;;;;;;27.92;100.00;98546.50;15268453;19;20539;-38
2023/07/10 09:33:10;;;;;;;4.63;1.70;;;;;;;27.92;100.00;98544.59;15271673;19;20025;-37
2023/07/10 09:38:35;;;;;;;5.90;1.60;;;;;;;28.03;100.00;98545.44;15267979;19;20018;-40
2023/07/10 09:44:09;;;;;;;4.30;1.40;;;;;;;27.98;100.00;98559.28;15266595;19;20050;-38
2023/07/10 09:49:39;;;;;;;3.03;1.40;;;;;;;28.03;100.00;98550.16;15270387;19;20014;-37
2023/07/10 09:55:09;;;;;;;;;;;;;;;28.07;100.00;98546.56;15272013;19;20018;-38
2023/07/10 10:00:33;;;;;;;5.30;1.40;;;;;;;28.05;100.00;98562.63;15271525;19;19930;-39
2023/07/10 10:06:03;;;;;;;2.25;1.27;;;;;;;27.78;100.00;98579.41;15267673;19;20039;-38
2023/07/10 10:11:37;;;;;;;6.77;1.57;;;;;;;27.78;100.00;98580.25;15269946;19;20026;-38
2023/07/10 10:17:06;;;;;;;4.85;1.50;;;;;;;27.71;100.00;98587.97;15259360;19;20025;-40
2023/07/10 10:22:35;;;;;;;2.03;1.35;;;;;;;27.61;100.00;98610.88;15270196;19;20023;-39
2023/07/10 10:28:12;;;;;;;5.25;1.30;;;;;;;27.38;100.00;98614.91;15269939;19;20483;-38
2023/07/10 10:33:44;;;;;;;5.65;1.63;;;;;;;27.16;100.00;98609.47;15265781;19;20021;-41
2023/07/10 10:39:21;;;;;;;5.82;1.38;;;;;;;26.93;100.00;98611.53;15268781;19;20017;-41
2023/07/10 10:44:56;;;;;;;5.20;1.58;;;;;;;26.87;100.00;98624.47;15262170;19;20018;-38
2023/07/10 10:50:49;;;;;;;4.05;1.65;;;;;;;26.61;100.00;98623.41;15268787;19;20085;-40
2023/07/10 10:56:25;;;;;;;8.00;1.40;;;;;;;26.76;100.00;98626.28;15262199;19;20019;-37
2023/07/10 11:01:54;;;;;;;3.90;1.50;;;;;;;26.73;100.00;98635.13;15275535;19;20018;-40
2023/07/10 11:07:23;;;;;;;3.00;1.50;;;;;;;26.74;100.00;98652.53;15274641;19;20077;-42
2023/07/10 11:12:51;;;;;;;4.83;1.53;;;;;;;26.85;100.00;98653.50;15282292;19;20014;-44
2023/07/10 11:18:17;;;;;;;4.18;1.70;;;;;;;26.64;100.00;98642.19;15278762;19;20019;-48
2023/07/10 11:23:45;;;;;;;4.57;1.70;;;;;;;26.43;100.00;98650.28;15280840;19;20106;-44
2023/07/10 11:29:30;;;;;;;3.90;1.63;;;;;;;26.44;100.00;98657.47;15281771;19;20022;-43
2023/07/10 11:35:02;;;;;;;4.43;1.80;;;;;;;26.68;100.00;98626.75;15277280;19;20043;-38
2023/07/10 11:40:46;;;;;;;4.13;1.90;;;;;;;26.24;100.00;98649.78;15280873;19;20010;-40
2023/07/10 11:46:26;;;;;;;6.57;1.70;;;;;;;26.40;100.00;98652.72;15276080;19;20439;-46
2023/07/10 11:52:13;;;;;;;3.22;1.98;;;;;;;26.32;100.00;98658.72;15277762;19;20119;-40
2023/07/10 11:57:39;;;;;;;3.85;1.90;;;;;;;26.42;100.00;98648.59;15271225;19;20015;-40
2023/07/10 12:03:10;;;;;;;7.07;2.30;;;;;;;26.32;100.00;98651.25;15278604;19;20010;-43
2023/07/10 12:08:39;;;;;;;2.58;2.13;;;;;;;26.43;100.00;98646.69;15277094;19;20015;-36
2023/07/10 12:14:07;;;;;;;4.90;2.22;;;;;;;26.45;100.00;98639.00;15273718;19;20475;-35
2023/07/10 12:19:45;;;;;;;3.15;2.60;;;;;;;26.24;100.00;98660.03;15275975;19;20041;-40
2023/07/10 12:25:14;;;;;;;4.80;2.17;;;;;;;25.84;100.00;98650.94;15270856;19;20098;-45
2023/07/10 12:30:41;;;;;;;2.90;2.30;;;;;;;26.10;100.00;98667.88;15278392;19;20020;-41
2023/07/10 12:36:20;;;;;;;4.97;2.88;;;;;;;26.27;100.00;98645.69;15280988;19;20057;-36
2023/07/10 12:41:49;;;;;;;2.83;2.40;;;;;;;26.48;100.00;98652.25;15281024;19;20010;-46
2023/07/10 12:47:23;;;;;;;6.13;2.63;;;;;;;26.51;100.00;98667.50;15290802;19;20070;-45
2023/07/10 12:52:59;;;;;;;4.57;2.40;;;;;;;26.38;100.00;98654.91;15286445;19;20635;-52
2023/07/10 12:58:25;;;;;;;3.85;2.40;;;;;;;26.38;100.00;98660.44;15275611;19;20534;-54
2023/07/10 13:04:02;;;;;;;2.38;1.98;;;;;;;26.44;100.00;98668.53;15274380;19;20035;-44
2023/07/10 13:09:32;;;;;;;2.60;1.90;;;;;;;26.29;100.00;98668.34;15276986;19;20014;-43
2023/07/10 13:14:58;;;;;;;4.03;1.60;;;;;;;26.67;100.00;98688.66;15275083;19;20010;-47
2023/07/10 13:20:29;;;;;;;1.95;1.40;;;;;;;26.57;100.00;98686.66;15275450;19;20500;-40
2023/07/10 13:25:58;;;;;;;2.33;1.40;;;;;;;26.40;100.00;98667.38;15266699;19;20022;-40
2023/07/10 13:31:25;;;;;;;2.25;1.30;;;;;;;26.53;100.00;98677.19;15306548;19;20031;-40
2023/07/10 13:36:49;;;;;;;1.83;1.30;;;;;;;26.79;100.00;98660.91;15299320;19;20018;-38
2023/07/10 13:42:20;;;;;;;2.25;1.20;;;;;;;27.20;100.00;98665.94;15280976;19;20537;-39
2023/07/10 13:47:52;;;;;;;2.33;1.10;;;;;;;27.44;100.00;98649.81;15271237;19;20011;-43
2023/07/10 13:53:19;;;;;;;1.67;1.10;;;;;;;27.55;96.09;98661.78;15275244;19;20018;-41
2023/07/10 13:58:47;;;;;;;4.40;1.10;;;;;;;27.24;100.00;98678.13;15268424;19;20015;-39
2023/07/10 14:04:12;;;;;;;2.28;1.02;;;;;;;27.23;100.00;98673.69;15271854;19;20046;-42
2023/07/10 14:09:36;;;;;;;4.10;1.20;;;;;;;27.14;100.00;98653.16;15271728;19;20011;-41
2023/07/10 14:15:06;;;;;;;2.25;1.10;;;;;;;27.20;100.00;98654.88;15269038;19;20058;-40
2023/07/10 14:20:32;;;;;;;1.63;1.30;;;;;;;27.25;96.97;98646.59;15272512;19;20015;-42
2023/07/10 14:25:59;;;;;;;3.08;1.10;;;;;;;27.54;97.71;98671.19;15258104;19;20017;-48
2023/07/10 14:31:27;;;;;;;3.22;1.10;;;;;;;27.29;100.00;98647.75;15256305;19;20470;-47
2023/07/10 14:36:52;;;;;;;3.75;1.00;;;;;;;27.62;95.45;98651.31;15279499;19;20018;-41
2023/07/10 14:42:20;;;;;;;1.55;1.08;;;;;;;28.09;94.04;98654.31;15286511;19;20285;-42
2023/07/10 14:47:48;;;;;;;1.67;1.10;;;;;;;27.97;93.87;98641.50;15278226;19;20017;-45
2023/07/10 14:53:20;;;;;;;1.55;1.10;;;;;;;28.43;90.69;98656.63;15282751;19;20023;-45
2023/07/10 14:58:45;;;;;;;1.92;1.00;;;;;;;28.63;82.90;98638.41;15274201;19;20042;-46
2023/07/10 15:04:12;;;;;;;3.25;0.93;;;;;;;28.57;82.55;98638.38;15273696;19;20026;-47
2023/07/10 15:09:37;;;;;;;1.20;1.00;;;;;;;27.96;83.47;98639.84;15276093;19;20025;-43
2023/07/10 15:15:02;;;;;;;1.83;0.98;;;;;;;28.23;85.36;98633.31;15280200;19;20010;-44
2023/07/10 15:20:29;;;;;;;2.00;1.00;;;;;;;27.92;84.42;98644.28;15276653;19;20018;-45
2023/07/10 15:25:54;;;;;;;3.05;0.90;;;;;;;28.20;82.94;98624.72;15276496;19;20487;-42
2023/07/10 15:31:19;;;;;;;0.98;0.90;;;;;;;28.30;83.43;98633.88;15276309;19;20379;-43
2023/07/10 15:36:46;;;;;;;1.13;0.90;;;;;;;28.52;82.07;98630.06;15273374;19;20497;-44
2023/07/10 15:42:17;;;;;;;1.35;0.88;;;;;;;28.42;80.66;98641.13;15282193;19;20106;-44
2023/07/10 15:47:41;;;;;;;1.80;1.00;;;;;;;28.01;84.72;98652.06;15273614;19;20483;-45
2023/07/10 15:53:14;;;;;;;1.70;0.90;;;;;;;28.22;85.06;98653.81;15277612;19;20767;-43
2023/07/10 15:58:39;;;;;;;2.08;1.00;;;;;;;28.03;84.08;98650.66;15274725;19;20102;-43
2023/07/10 16:04:04;;;;;;;1.27;0.90;;;;;;;28.14;83.13;98649.63;15267961;19;20022;-45
2023/07/10 16:09:31;;;;;;;3.30;1.00;;;;;;;28.19;83.04;98656.31;15270403;19;20015;-53
2023/07/10 16:14:55;;;;;;;2.30;0.90;;;;;;;27.99;82.21;98655.91;15277109;19;20030;-44
2023/07/10 16:20:25;;;;;;;1.67;0.90;;;;;;;27.92;84.99;98649.81;15276854;19;20418;-45
2023/07/10 16:25:52;;;;;;;2.33;1.00;;;;;;;27.63;86.57;98644.66;15275378;19;20030;-45
2023/07/10 16:31:21;;;;;;;1.10;1.00;;;;;;;27.85;83.31;98651.97;15275294;19;20612;-47
2023/07/10 16:36:48;;;;;;;1.30;0.90;;;;;;;27.63;83.63;98647.44;15271041;19;20035;-47
2023/07/10 16:42:21;;;;;;;2.15;0.90;;;;;;;27.06;87.70;98654.47;15273536;19;20014;-46
2023/07/10 16:47:46;;;;;;;1.13;0.90;;;;;;;26.75;90.77;98655.00;15270988;19;20018;-45
2023/07/10 16:53:14;;;;;;;1.20;1.05;;;;;;;26.80;92.53;98656.19;15274400;19;20028;-50
2023/07/10 16:58:41;;;;;;;1.38;1.00;;;;;;;26.36;91.08;98652.44;15268961;19;20078;-48
2023/07/10 17:04:09;;;;;;;1.35;1.02;;;;;;;26.15;93.71;98662.41;15273155;19;20017;-45
2023/07/10 17:09:34;;;;;;;3.88;0.90;;;;;;;25.85;93.30;98658.97;15268435;19;20019;-48
2023/07/10 17:15:01;;;;;;;2.13;1.10;;;;;;;25.62;92.91;98656.44;15269274;19;20011;-45
2023/07/10 17:20:26;;;;;;;1.55;1.10;;;;;;;25.87;92.22;98646.84;15269169;19;20019;-45
2023/07/10 17:25:51;;;;;;;1.02;1.00;;;;;;;26.02;87.99;98643.44;15268024;19;20021;-43
2023/07/10 17:31:23;;;;;;;1.92;0.90;;;;;;;25.96;83.79;98642.53;15271460;19;20029;-43
2023/07/10 17:36:47;;;;;;;1.20;1.00;;;;;;;25.71;84.06;98641.09;15268444;19;20015;-43
2023/07/10 17:42:18;;;;;;;1.88;0.90;;;;;;;25.82;83.48;98642.91;15274659;19;20011;-44
2023/07/10 17:47:45;;;;;;;1.15;0.98;;;;;;;26.09;80.51;98638.56;15262607;19;21533;-45
2023/07/10 17:53:14;;;;;;;1.67;0.93;;;;;;;26.35;78.12;98638.84;15269915;19;20102;-43
2023/07/10 17:58:39;;;;;;;1.00;0.90;;;;;;;26.38;77.07;98641.09;15268452;19;20363;-42
2023/07/10 18:04:08;;;;;;;2.70;0.90;;;;;;;26.55;73.38;98643.75;15267870;19;20726;-43
2023/07/10 18:09:35;;;;;;;1.15;0.80;;;;;;;26.66;73.17;98645.53;15263395;19;20356;-42
2023/07/10 18:15:00;;;;;;;1.92;0.82;;;;;;;26.53;68.22;98649.56;15269338;19;20018;-41
2023/07/10 18:20:27;;;;;;;1.00;0.77;;;;;;;26.36;69.96;98646.06;15268201;19;20011;-43
2023/07/10 18:25:54;;;;;;;1.23;0.80;;;;;;;26.19;68.30;98652.50;15267677;19;20014;-47
2023/07/10 18:31:25;;;;;;;1.73;0.80;;;;;;;26.03;68.37;98657.00;15271243;19;20093;-42
2023/07/10 18:36:54;;;;;;;1.17;0.90;;;;;;;25.98;68.27;98654.16;15265123;19;20047;-46
2023/07/10 18:42:25;;;;;;;0.80;0.80;;;;;;;25.87;67.90;98655.13;15267952;19;20089;-44
2023/07/10 18:47:50;;;;;;;1.10;0.80;;;;;;;25.68;67.15;98650.72;15260802;19;20010;-42
2023/07/10 18:53:23;;;;;;;1.85;0.93;;;;;;;25.57;66.45;98656.38;15248076;19;20014;-40
2023/07/10 18:58:51;;;;;;;1.40;0.90;;;;;;;25.40;66.79;98648.94;15264465;19;20082;-42
2023/07/10 19:04:16;;;;;;;2.50;0.90;;;;;;;25.26;67.92;98656.72;15265189;19;20015;-42
2023/07/10 19:09:48;;;;;;;3.03;1.13;;;;;;;25.03;67.74;98663.25;15262989;19;20467;-42
2023/07/10 19:15:14;;;;;;;1.77;0.80;;;;;;;24.81;68.77;98661.22;15265501;19;20015;-46
2023/07/10 19:20:40;;;;;;;3.20;1.10;;;;;;;24.47;72.51;98680.41;15268822;19;20010;-45
2023/07/10 19:26:08;;;;;;;5.28;1.00;;;;;;;24.24;77.11;98671.16;15280094;19;20018;-43
2023/07/10 19:31:34;;;;;;;1.52;1.05;;;;;;;24.10;86.21;98667.88;15280124;19;20019;-43
2023/07/10 19:36:58;;;;;;;1.13;0.90;;;;;;;23.97;91.28;98682.72;15276695;19;20042;-45
2023/07/10 19:42:26;;;;;;;0.95;0.88;;;;;;;23.84;100.00;98689.31;15277997;19;20086;-43
2023/07/10 19:47:52;;;;;;;1.33;0.90;;;;;;;23.70;100.00;98696.13;15271985;19;20035;-43
2023/07/10 19:53:22;;;;;;;2.70;0.90;;;;;;;23.55;100.00;98696.63;15271402;19;20018;-45
2023/07/10 19:58:54;;;;;;;2.60;1.02;;;;;;;23.37;100.00;98695.66;15270903;19;20010;-44
2023/07/10 20:04:20;;;;;;;4.13;1.05;;;;;;;23.24;100.00;98704.97;15275680;19;20023;-43
2023/07/10 20:09:45;;;;;;;2.03;1.20;;;;;;;23.15;100.00;98711.03;15271266;19;20073;-46
2023/07/10 20:15:16;;;;;;;2.88;0.90;;;;;;;23.01;100.00;98716.72;15273757;19;20017;-44
2023/07/10 20:20:40;;;;;;;3.17;0.90;;;;;;;22.87;100.00;98713.34;15273133;19;20015;-43
2023/07/10 20:26:14;;;;;;;4.55;1.05;;;;;;;22.68;100.00;98712.56;15268657;19;20376;-44
2023/07/10 20:31:42;;;;;;;0.98;0.80;;;;;;;22.57;100.00;98719.72;15273157;19;20016;-45
2023/07/10 20:37:07;;;;;;;2.50;1.10;;;;;;;22.46;100.00;98717.75;15265424;19;20018;-46
2023/07/10 20:42:31;;;;;;;2.47;1.00;;;;;;;22.36;100.00;98723.75;15273274;19;20051;-44
2023/07/10 20:47:59;;;;;;;1.35;0.90;;;;;;;22.25;100.00;98719.88;15269942;19;20021;-43
2023/07/10 20:53:23;;;;;;;2.03;0.90;;;;;;;22.15;100.00;98728.66;15272120;19;20375;-42
2023/07/10 20:58:48;;;;;;;1.52;0.98;;;;;;;22.10;100.00;98727.69;15266556;19;20029;-43
2023/07/10 21:04:16;;;;;;;2.15;0.90;;;;;;;22.04;100.00;98729.44;15271765;19;20417;-45
2023/07/10 21:09:51;;;;;;;1.13;0.80;;;;;;;21.92;100.00;98731.25;15213901;19;20010;-45
2023/07/10 21:15:21;;;;;;;1.95;0.80;;;;;;;21.75;100.00;98731.00;15271626;19;20007;-47
2023/07/10 21:20:49;;;;;;;2.47;1.00;;;;;;;21.64;100.00;98729.84;15271126;19;20017;-43
2023/07/10 21:26:23;;;;;;;2.33;0.85;;;;;;;21.44;100.00;98730.84;15268257;19;20014;-42
2023/07/10 21:31:48;;;;;;;1.40;0.82;;;;;;;21.28;100.00;98736.88;15269905;19;20035;-42
2023/07/10 21:37:15;;;;;;;2.05;0.95;;;;;;;21.16;100.00;98729.38;15265621;19;20017;-43
2023/07/10 21:42:40;;;;;;;1.33;0.90;;;;;;;21.04;100.00;98732.00;15270057;19;20031;-44
2023/07/10 21:48:04;;;;;;;1.63;1.00;;;;;;;20.97;100.00;98725.72;15266365;19;20015;-42
2023/07/10 21:53:33;;;;;;;1.75;0.80;;;;;;;20.92;100.00;98726.41;15270739;19;20487;-42
2023/07/10 21:58:59;;;;;;;0.85;0.80;;;;;;;20.86;100.00;98719.09;15267100;19;20039;-43
2023/07/10 22:04:24;;;;;;;1.67;1.00;;;;;;;20.79;100.00;98721.00;15265374;19;20014;-43
2023/07/10 22:09:51;;;;;;;1.00;0.82;;;;;;;20.71;100.00;98724.81;15266909;19;20010;-43
2023/07/10 22:15:20;;;;;;;1.30;0.90;;;;;;;20.59;100.00;98716.47;15269274;19;20018;-45
2023/07/10 22:20:50;;;;;;;3.35;1.00;;;;;;;20.52;100.00;98729.34;15267240;19;20025;-41
2023/07/10 22:26:18;;;;;;;1.00;0.90;;;;;;;20.49;100.00;98724.31;15266340;19;20022;-41
2023/07/10 22:31:43;;;;;;;1.92;0.90;;;;;;;20.48;100.00;98728.09;15268236;19;20490;-41
2023/07/10 22:37:08;;;;;;;3.35;0.90;;;;;;;20.45;100.00;98731.28;15260596;19;20018;-41
2023/07/10 22:42:35;;;;;;;1.38;1.00;;;;;;;20.37;100.00;98724.16;15268822;19;20014;-42
2023/07/10 22:48:00;;;;;;;1.40;1.00;;;;;;;20.27;100.00;98719.16;15262874;19;20440;-42
2023/07/10 22:53:25;;;;;;;1.65;1.00;;;;;;;20.17;100.00;98718.75;15266664;19;20011;-45
2023/07/10 22:58:55;;;;;;;1.75;1.00;;;;;;;20.06;100.00;98714.81;15276961;19;20021;-44
2023/07/10 23:04:20;;;;;;;5.22;1.05;;;;;;;20.00;100.00;98718.41;15280146;19;20018;-41
2023/07/10 23:09:46;;;;;;;1.50;1.08;;;;;;;19.92;100.00;98727.69;15276769;19;20028;-41
2023/07/10 23:15:14;;;;;;;3.97;1.10;;;;;;;19.81;100.00;98728.34;15280583;19;20468;-42
2023/07/10 23:20:39;;;;;;;1.65;0.98;;;;;;;19.63;100.00;98723.53;15280477;19;20015;-44
2023/07/10 23:26:03;;;;;;;2.85;1.20;;;;;;;19.53;100.00;98718.50;15276906;19;20444;-41
2023/07/10 23:31:32;;;;;;;1.60;0.90;;;;;;;19.45;100.00;98718.72;15274372;19;20018;-43
2023/07/10 23:37:09;;;;;;;3.15;1.15;;;;;;;19.43;100.00;98713.44;15197030;19;10001418;-42
2023/07/10 23:42:34;;;;;;;3.85;1.15;;;;;;;19.38;100.00;98724.19;15274925;19;20245;-42
2023/07/10 23:48:01;;;;;;;1.58;0.90;;;;;;;19.27;100.00;98720.19;15273504;19;20015;-43
2023/07/10 23:53:27;;;;;;;1.60;1.10;;;;;;;19.19;100.00;98714.94;15277378;19;20078;-43
2023/07/10 23:58:51;;;;;;;1.13;1.00;;;;;;;19.11;100.00;98716.00;15273703;19;20520;-44
